Time;durP1;ratioP1;P1;durP2;ratioP2;P2;SDS_P1;SDS_P2;PMS_P1;PMS_P2;Temp;Humidity;BMP_temperature;BMP_pressure;BME280_temperature;BME280_humidity;BME280_pressure;Samples;Min_cycle;Max_cycle;Signal;HPM_P1;HPM_P2
2021/04/16 00:00:13;;;;;;;6.60;2.92;;;3.50;99.90;;;;;;6660155;88;20178;-77
2021/04/16 00:10:24;;;;;;;5.07;2.70;;;3.60;99.90;;;;;;6731744;88;20198;-77
2021/04/16 00:20:28;;;;;;;7.10;3.12;;;3.50;99.90;;;;;;6699162;88;20184;-77
2021/04/16 00:30:35;;;;;;;6.40;3.03;;;3.60;99.90;;;;;;6683879;88;20192;-77
2021/04/16 00:40:40;;;;;;;5.60;3.15;;;3.60;99.90;;;;;;6662800;88;20229;-77
2021/04/16 00:50:47;;;;;;;4.97;2.90;;;3.60;99.90;;;;;;6653808;88;20690;-77
2021/04/16 01:00:53;;;;;;;6.10;2.90;;;3.60;99.90;;;;;;6664681;88;20884;-77
2021/04/16 01:10:53;;;;;;;7.40;3.40;;;3.70;99.90;;;;;;6670087;88;20253;-77
2021/04/16 01:20:57;;;;;;;7.50;2.90;;;3.60;99.90;;;;;;6691179;88;20298;-77
2021/04/16 01:31:11;;;;;;;5.25;2.90;;;3.60;99.90;;;;;;6683473;88;20259;-77
2021/04/16 01:41:13;;;;;;;7.55;3.20;;;3.50;99.90;;;;;;6666078;88;20187;-77
2021/04/16 01:51:24;;;;;;;4.95;2.87;;;3.50;99.90;;;;;;6698999;88;20190;-77
2021/04/16 02:01:25;;;;;;;5.75;3.28;;;3.40;99.90;;;;;;6674555;88;20204;-77
2021/04/16 02:11:25;;;;;;;7.10;3.35;;;3.40;99.90;;;;;;6665102;88;20274;-78
2021/04/16 02:21:26;;;;;;;6.15;3.08;;;3.50;99.90;;;;;;6678950;88;20421;-77
2021/04/16 02:31:27;;;;;;;6.53;3.00;;;3.60;99.90;;;;;;6676796;88;20197;-77
2021/04/16 02:41:27;;;;;;;6.87;3.30;;;3.80;99.90;;;;;;6674779;88;20189;-76
2021/04/16 02:51:28;;;;;;;8.40;3.28;;;3.70;99.90;;;;;;6650959;88;20300;-77
2021/04/16 03:01:29;;;;;;;8.40;3.00;;;3.70;99.90;;;;;;6664841;88;20196;-76
2021/04/16 03:11:30;;;;;;;6.05;3.50;;;3.50;99.90;;;;;;6658956;88;20220;-77
2021/04/16 03:21:30;;;;;;;7.15;3.72;;;3.70;99.90;;;;;;6653663;89;20700;-76
2021/04/16 03:31:31;;;;;;;8.80;3.90;;;3.90;99.90;;;;;;6653936;88;20239;-77
2021/04/16 03:41:32;;;;;;;8.80;3.70;;;3.80;99.90;;;;;;6668694;88;20530;-76
2021/04/16 03:52:04;;;;;;;6.85;3.17;;;3.90;99.90;;;;;;6672349;88;20803;-78
2021/04/16 04:02:04;;;;;;;6.80;3.35;;;3.90;99.90;;;;;;6725188;88;20343;-76
2021/04/16 04:12:06;;;;;;;6.00;3.00;;;3.80;99.90;;;;;;6752613;88;20200;-76
2021/04/16 04:22:06;;;;;;;8.18;3.40;;;3.60;99.90;;;;;;6753428;88;20293;-75
2021/04/16 04:32:08;;;;;;;6.22;3.10;;;3.50;99.90;;;;;;6754631;88;20181;-78
2021/04/16 04:42:08;;;;;;;5.55;3.12;;;3.50;99.90;;;;;;6739248;88;20195;-77
2021/04/16 04:52:18;;;;;;;6.37;3.30;;;3.40;99.90;;;;;;6729707;88;20214;-77
2021/04/16 05:02:22;;;;;;;8.23;2.78;;;3.50;99.90;;;;;;6685398;88;20170;-78
2021/04/16 05:12:23;;;;;;;7.50;3.20;;;3.40;99.90;;;;;;6671942;88;20211;-77
2021/04/16 05:22:23;;;;;;;6.35;3.22;;;3.70;99.90;;;;;;6669695;88;20204;-77
2021/04/16 05:32:24;;;;;;;5.82;3.03;;;3.90;99.90;;;;;;6670628;88;20683;-77
2021/04/16 05:42:25;;;;;;;6.60;3.10;;;4.00;99.90;;;;;;6684204;88;20207;-77
2021/04/16 05:52:26;;;;;;;5.40;2.85;;;4.30;99.90;;;;;;6669685;88;20195;-77
2021/04/16 06:02:32;;;;;;;5.37;2.80;;;4.50;99.90;;;;;;6669522;88;20226;-78
2021/04/16 06:12:34;;;;;;;7.80;3.17;;;4.80;99.90;;;;;;6662283;88;21615;-79
2021/04/16 06:22:35;;;;;;;7.30;3.72;;;5.10;99.90;;;;;;6686853;88;20619;-78
2021/04/16 06:32:35;;;;;;;6.12;3.70;;;5.30;99.90;;;;;;6702348;88;20255;-79
2021/04/16 06:42:36;;;;;;;12.55;3.80;;;5.50;99.90;;;;;;6700339;88;20195;-78
2021/04/16 06:52:50;;;;;;;6.12;3.30;;;6.10;99.90;;;;;;6684928;88;20221;-78
2021/04/16 07:03:12;;;;;;;5.47;2.80;;;6.50;99.90;;;;;;6686087;88;21011;-78
2021/04/16 07:13:20;;;;;;;7.62;3.03;;;6.80;99.90;;;;;;6652618;88;20228;-77
2021/04/16 07:23:21;;;;;;;7.00;2.30;;;7.10;99.90;;;;;;6652955;89;20194;-77
2021/04/16 07:33:41;;;;;;;4.40;2.00;;;7.20;99.90;;;;;;6652232;88;20641;-76
2021/04/16 07:43:44;;;;;;;4.82;2.05;;;8.00;99.90;;;;;;6661465;88;20295;-77
2021/04/16 07:53:49;;;;;;;4.00;2.12;;;8.90;99.90;;;;;;6651592;88;20318;-77
2021/04/16 08:03:54;;;;;;;6.43;2.22;;;8.90;99.90;;;;;;6674518;88;20202;-77
2021/04/16 08:14:05;;;;;;;3.87;2.35;;;8.90;99.90;;;;;;6666125;88;20301;-77
2021/04/16 08:24:36;;;;;;;3.58;1.98;;;9.00;99.90;;;;;;6660382;88;20212;-76
2021/04/16 08:34:52;;;;;;;3.87;2.10;;;9.20;99.20;;;;;;6678519;88;20627;-76
2021/04/16 08:44:55;;;;;;;;;;;9.40;98.80;;;;;;6715888;88;20914;-76
2021/04/16 08:55:13;;;;;;;4.22;1.90;;;9.60;98.30;;;;;;6736776;88;20115;-77
2021/04/16 09:05:25;;;;;;;4.93;2.20;;;9.80;97.90;;;;;;6679036;88;20630;-77
2021/04/16 09:15:25;;;;;;;6.55;2.30;;;9.90;96.90;;;;;;6700051;88;20311;-77
2021/04/16 09:25:32;;;;;;;4.10;2.30;;;10.20;96.80;;;;;;6679571;88;20246;-76
2021/04/16 09:35:38;;;;;;;;;;;10.20;96.40;;;;;;6672100;88;20212;-77
2021/04/16 09:45:45;;;;;;;6.55;2.50;;;10.40;95.30;;;;;;6668797;88;20064;-77
2021/04/16 09:55:58;;;;;;;5.55;2.20;;;10.50;95.60;;;;;;6665214;88;20583;-75
2021/04/16 10:06:18;;;;;;;4.85;2.47;;;10.70;94.50;;;;;;6659693;88;20214;-77
2021/04/16 10:16:23;;;;;;;4.22;2.10;;;11.30;94.70;;;;;;6659227;88;20197;-77
2021/04/16 10:27:45;;;;;;;5.97;2.40;;;11.30;93.50;;;;;;6658038;88;20326;-77
2021/04/16 12:41:43;;;;;;;5.07;2.30;;;12.00;80.50;;;;;;6693657;88;20652;-78
2021/04/16 12:51:43;;;;;;;4.53;1.90;;;12.10;80.70;;;;;;6697173;88;20229;-77
2021/04/16 13:01:45;;;;;;;4.85;2.20;;;12.80;78.80;;;;;;6690651;88;20228;-76
2021/04/16 13:11:50;;;;;;;3.53;1.90;;;13.10;77.10;;;;;;6655833;88;20239;-78
2021/04/16 13:21:56;;;;;;;4.85;2.17;;;12.50;76.30;;;;;;6669698;88;20333;-78
2021/04/16 13:31:56;;;;;;;;;;;12.30;76.80;;;;;;6679634;88;20711;-76
2021/04/16 13:41:57;;;;;;;3.70;1.90;;;12.20;77.40;;;;;;6666405;88;20051;-77
2021/04/16 13:51:57;;;;;;;6.18;1.98;;;12.40;78.20;;;;;;6667300;88;20508;-77
2021/04/16 14:01:58;;;;;;;3.03;1.50;;;12.80;74.70;;;;;;6661259;88;20372;-77
2021/04/16 14:12:00;;;;;;;3.90;1.70;;;13.00;73.70;;;;;;6672212;88;20207;-78
2021/04/16 14:22:00;;;;;;;4.65;1.60;;;12.90;72.00;;;;;;6677456;88;20307;-78
2021/04/16 14:32:02;;;;;;;3.70;1.65;;;13.00;72.20;;;;;;6673114;88;21065;-79
2021/04/16 14:42:03;;;;;;;2.33;1.30;;;13.20;71.40;;;;;;6681686;89;20188;-78
2021/04/16 14:52:07;;;;;;;1.77;1.08;;;13.70;69.60;;;;;;6697198;88;20311;-79
2021/04/16 15:02:07;;;;;;;3.10;1.27;;;13.90;66.10;;;;;;6684767;88;20214;-79
2021/04/16 15:12:13;;;;;;;2.25;1.33;;;13.90;65.80;;;;;;6682107;88;20151;-79
2021/04/16 15:22:29;;;;;;;5.78;1.40;;;14.00;65.50;;;;;;6697809;88;20253;-79
2021/04/16 15:32:37;;;;;;;2.70;1.67;;;13.80;66.10;;;;;;6678173;88;20172;-79
2021/04/16 15:53:08;;;;;;;4.53;2.30;;;13.10;69.10;;;;;;6678718;88;20257;-78
2021/04/16 16:03:10;;;;;;;5.95;2.30;;;13.20;69.20;;;;;;6703192;88;20728;-79
2021/04/16 16:13:39;;;;;;;4.07;2.30;;;12.90;69.20;;;;;;6702633;88;20187;-80
2021/04/16 16:23:42;;;;;;;4.32;2.30;;;12.70;69.20;;;;;;6676636;88;20700;-79
2021/04/16 16:33:43;;;;;;;4.82;2.60;;;12.50;70.30;;;;;;6695897;88;20292;-79
2021/04/16 16:43:46;;;;;;;5.32;2.50;;;12.40;70.80;;;;;;6682306;88;20187;-79
2021/04/16 16:53:47;;;;;;;4.75;2.87;;;12.30;71.40;;;;;;6701705;87;20217;-78
2021/04/16 17:03:49;;;;;;;4.73;2.43;;;12.10;72.00;;;;;;6689690;87;20152;-79
2021/04/16 17:13:51;;;;;;;4.25;2.35;;;12.00;73.00;;;;;;6684772;88;20204;-80
2021/04/16 17:23:53;;;;;;;4.57;2.53;;;11.90;73.40;;;;;;6681781;88;20214;-79
2021/04/16 17:33:54;;;;;;;5.18;2.80;;;11.70;74.40;;;;;;6680389;88;20847;-79
2021/04/16 17:43:57;;;;;;;4.72;2.53;;;11.80;74.40;;;;;;6694390;88;20230;-79
2021/04/16 17:54:00;;;;;;;6.03;2.78;;;11.50;75.50;;;;;;6680892;88;20190;-79
2021/04/16 18:04:00;;;;;;;5.05;2.65;;;11.50;76.10;;;;;;6681066;88;20227;-79
2021/04/16 18:14:01;;;;;;;7.45;3.12;;;11.40;77.30;;;;;;6680824;89;20658;-80
2021/04/16 18:24:20;;;;;;;4.70;2.87;;;11.00;79.00;;;;;;6678350;89;20192;-80
2021/04/16 18:34:21;;;;;;;6.57;2.92;;;10.90;78.60;;;;;;6680559;89;20194;-80
2021/04/16 18:44:25;;;;;;;6.53;2.97;;;10.90;79.00;;;;;;6671807;89;20362;-80
2021/04/16 18:54:33;;;;;;;4.72;2.70;;;10.70;80.20;;;;;;6684090;88;20245;-79
2021/04/16 19:04:33;;;;;;;4.90;2.33;;;10.70;81.10;;;;;;6669688;89;20219;-79
2021/04/16 19:14:35;;;;;;;5.62;3.00;;;10.40;82.90;;;;;;6670093;89;20691;-79
2021/04/16 19:24:45;;;;;;;6.43;2.92;;;10.30;85.60;;;;;;6671962;89;20270;-79
2021/04/16 19:34:45;;;;;;;4.35;2.70;;;10.10;87.20;;;;;;6738095;88;20198;-79
2021/04/16 19:44:46;;;;;;;5.05;2.85;;;9.80;90.40;;;;;;6742518;88;20285;-79
2021/04/16 20:25:57;;;;;;;11.30;4.68;;;8.70;97.30;;;;;;6744321;88;20225;-80
2021/04/16 20:36:03;;;;;;;9.30;4.93;;;8.40;98.50;;;;;;6744522;88;20208;-81
2021/04/16 20:46:05;;;;;;;9.30;4.87;;;8.20;99.90;;;;;;6746568;88;20252;-79
2021/04/16 20:56:06;;;;;;;15.60;7.10;;;7.90;99.90;;;;;;6742268;88;20305;-78
2021/04/16 21:06:18;;;;;;;11.07;5.45;;;7.70;99.90;;;;;;6753789;88;20350;-78
2021/04/16 21:16:22;;;;;;;10.40;5.22;;;7.60;99.90;;;;;;6755230;88;20242;-78
2021/04/16 21:26:36;;;;;;;11.43;5.12;;;7.40;99.90;;;;;;6740362;88;20201;-79
2021/04/16 21:36:37;;;;;;;10.15;5.20;;;7.30;99.90;;;;;;6743494;88;20195;-78
2021/04/16 21:47:03;;;;;;;7.30;4.65;;;7.30;99.90;;;;;;6741799;88;20200;-78
2021/04/16 21:57:07;;;;;;;7.07;4.50;;;7.30;99.90;;;;;;6716359;88;20253;-78
2021/04/16 22:07:32;;;;;;;9.05;4.85;;;7.20;99.90;;;;;;6724116;88;20219;-79
2021/04/16 22:17:34;;;;;;;6.78;4.30;;;7.00;99.90;;;;;;6720718;88;20206;-79
2021/04/16 22:27:44;;;;;;;9.98;5.15;;;6.80;99.90;;;;;;6724146;88;20287;-78
2021/04/16 22:37:45;;;;;;;11.07;5.28;;;6.70;99.90;;;;;;6670312;89;20226;-79
2021/04/16 22:47:46;;;;;;;7.40;4.28;;;6.70;99.90;;;;;;6721945;88;20196;-78
2021/04/16 22:57:47;;;;;;;8.20;4.57;;;6.70;99.90;;;;;;6741136;88;20235;-78
2021/04/16 23:07:48;;;;;;;8.20;4.55;;;6.70;99.90;;;;;;6741257;88;20210;-78
2021/04/16 23:17:48;;;;;;;6.07;4.15;;;6.70;99.90;;;;;;6737258;88;20202;-78
2021/04/16 23:27:53;;;;;;;9.38;4.18;;;6.70;99.90;;;;;;6741222;88;20700;-78
2021/04/16 23:37:54;;;;;;;7.70;4.12;;;6.60;99.90;;;;;;6743281;88;21080;-79
2021/04/16 23:47:55;;;;;;;7.50;3.80;;;6.50;99.90;;;;;;6745333;88;20248;-79
2021/04/16 23:57:59;;;;;;;7.12;4.00;;;6.50;99.90;;;;;;6741023;88;20236;-79
